Hughenden Airport


Codes: YHUG/HGD
Name: Hughenden Airport
City:
Country: Australia
Elevation: 1043 ft.
Wikipedia:

Photos at Hughenden Airport


   Photos courtesy of SpottingLog. You can add your own sightings and photos by signing up for a free trial today.



No photos found.

Weather at Hughenden Airport


Time (UTC)DescriptionTempratureWindCloud coverageVisibilityPressureHumidity
21-Jun-2024 12:00Overcast Clouds20°C13 mph, S99%10000m1020hPa41%
21-Jun-2024 15:00Overcast Clouds19°C11 mph, SE99%10000m1020hPa41%
21-Jun-2024 18:00Overcast Clouds16°C9 mph, SE96%10000m1020hPa40%
21-Jun-2024 21:00Few Clouds13°C9 mph, SE15%10000m1021hPa42%
22-Jun-2024 00:00Broken Clouds19°C13 mph, SE51%10000m1022hPa32%
22-Jun-2024 03:00Clear Sky23°C11 mph, SE2%10000m1018hPa29%
22-Jun-2024 06:00Clear Sky24°C11 mph, S1%10000m1016hPa29%
22-Jun-2024 09:00Clear Sky19°C13 mph, S0%10000m1018hPa37%
22-Jun-2024 12:00Clear Sky16°C11 mph, S0%10000m1019hPa32%
22-Jun-2024 15:00Clear Sky14°C9 mph, SE0%10000m1019hPa33%
22-Jun-2024 18:00Clear Sky12°C4 mph, E0%10000m1019hPa38%
22-Jun-2024 21:00Clear Sky11°C7 mph, SE0%10000m1020hPa43%
23-Jun-2024 00:00Clear Sky18°C9 mph, SE0%10000m1020hPa38%
23-Jun-2024 03:00Clear Sky23°C7 mph, SE0%10000m1016hPa38%
23-Jun-2024 06:00Clear Sky25°C7 mph, SE0%10000m1014hPa37%
23-Jun-2024 09:00Clear Sky20°C11 mph, SE0%10000m1015hPa48%
23-Jun-2024 12:00Clear Sky17°C9 mph, E0%10000m1016hPa50%
23-Jun-2024 15:00Clear Sky15°C9 mph, E0%10000m1015hPa57%
23-Jun-2024 18:00Clear Sky14°C9 mph, E0%10000m1014hPa67%
23-Jun-2024 21:00Clear Sky13°C11 mph, E0%10000m1015hPa93%
24-Jun-2024 00:00Clear Sky22°C16 mph, NE6%10000m1015hPa54%
24-Jun-2024 03:00Clear Sky27°C11 mph, N1%10000m1012hPa36%
24-Jun-2024 06:00Few Clouds28°C13 mph, W18%10000m1009hPa27%
24-Jun-2024 09:00Broken Clouds23°C2 mph, NE73%10000m1012hPa50%
24-Jun-2024 12:00Broken Clouds22°C4 mph, NE72%10000m1013hPa59%
24-Jun-2024 15:00Broken Clouds20°C11 mph, N83%10000m1013hPa66%
24-Jun-2024 18:00Broken Clouds18°C9 mph, N58%10000m1013hPa79%
24-Jun-2024 21:00Scattered Clouds17°C9 mph, N33%10000m1014hPa84%
25-Jun-2024 00:00Few Clouds23°C9 mph, N16%10000m1015hPa58%
25-Jun-2024 03:00Broken Clouds26°C9 mph, W65%10000m1013hPa45%
25-Jun-2024 06:00Broken Clouds26°C11 mph, W55%10000m1011hPa42%
25-Jun-2024 09:00Light Rain20°C7 mph, SW23%10000m1015hPa55%
25-Jun-2024 12:00Light Rain20°C0 mph, SE58%10000m1016hPa60%
25-Jun-2024 15:00Light Rain19°C9 mph, S64%10000m1017hPa69%
25-Jun-2024 18:00Broken Clouds17°C9 mph, SE51%10000m1017hPa78%
25-Jun-2024 21:00Scattered Clouds16°C9 mph, SE28%10000m1018hPa84%
26-Jun-2024 00:00Light Rain18°C9 mph, SE53%10000m1020hPa76%
26-Jun-2024 03:00Broken Clouds24°C11 mph, E57%10000m1016hPa55%
26-Jun-2024 06:00Scattered Clouds26°C13 mph, SE47%10000m1014hPa51%
26-Jun-2024 09:00Broken Clouds22°C11 mph, SE56%10000m1016hPa65%